Time;durP1;ratioP1;P1;durP2;ratioP2;P2;SDS_P1;SDS_P2;PMS_P1;PMS_P2;Temp;Humidity;BMP_temperature;BMP_pressure;BME280_temperature;BME280_humidity;BME280_pressure;Samples;Min_cycle;Max_cycle;Signal;HPM_P1;HPM_P2
2022/02/12 00:00:37;;;;;;;8.48;6.18;;;;;;;;;;5012630;28;20381;-78
2022/02/12 00:03:04;;;;;;;10.48;7.05;;;;;;;;;;5031877;28;20018;-76
2022/02/12 00:05:31;;;;;;;8.90;6.03;;;;;;;;;;5034130;28;20014;-77
2022/02/12 00:07:58;;;;;;;9.07;5.85;;;;;;;;;;5033893;28;20016;-76
2022/02/12 00:10:25;;;;;;;8.10;5.63;;;;;;;;;;5034082;28;20071;-76
2022/02/12 00:12:52;;;;;;;5.63;4.43;;;;;;;;;;5033356;28;20099;-76
2022/02/12 00:15:18;;;;;;;7.43;5.65;;;;;;;;;;5033760;28;20025;-76
2022/02/12 00:17:44;;;;;;;8.73;5.00;;;;;;;;;;5033620;28;20472;-76
2022/02/12 00:20:11;;;;;;;9.82;5.53;;;;;;;;;;5015931;28;20013;-77
2022/02/12 00:22:37;;;;;;;10.45;6.25;;;;;;;;;;5015183;28;20014;-76
2022/02/12 00:25:04;;;;;;;10.15;6.88;;;;;;;;;;5016120;28;20022;-76
2022/02/12 00:27:30;;;;;;;6.18;5.05;;;;;;;;;;5015832;28;20024;-76
2022/02/12 00:29:57;;;;;;;9.57;5.88;;;;;;;;;;5016022;28;20045;-76
2022/02/12 00:32:23;;;;;;;9.63;4.72;;;;;;;;;;5033795;28;20983;-77
2022/02/12 00:34:49;;;;;;;14.75;5.80;;;;;;;;;;5033121;28;20021;-76
2022/02/12 00:37:16;;;;;;;6.13;3.42;;;;;;;;;;5033310;28;20511;-75
2022/02/12 00:39:42;;;;;;;5.55;4.05;;;;;;;;;;5014787;28;20542;-75
2022/02/12 00:42:08;;;;;;;6.47;3.67;;;;;;;;;;5031147;28;20021;-76
2022/02/12 00:44:34;;;;;;;7.35;3.22;;;;;;;;;;5032041;28;20484;-77
2022/02/12 00:47:00;;;;;;;4.15;2.78;;;;;;;;;;5033397;28;20026;-77
2022/02/12 00:49:27;;;;;;;4.55;3.05;;;;;;;;;;5032184;28;20041;-77
2022/02/12 00:51:53;;;;;;;3.55;2.22;;;;;;;;;;5014657;28;20642;-77
2022/02/12 00:54:20;;;;;;;3.88;2.40;;;;;;;;;;5032290;28;20025;-76
2022/02/12 00:56:46;;;;;;;6.32;2.67;;;;;;;;;;5032650;28;20045;-76
2022/02/12 00:59:12;;;;;;;4.03;2.72;;;;;;;;;;5033367;28;20017;-76
2022/02/12 01:01:38;;;;;;;3.42;2.20;;;;;;;;;;5032731;28;20055;-77
2022/02/12 01:04:04;;;;;;;6.30;2.70;;;;;;;;;;5010944;28;20405;-77
2022/02/12 01:06:31;;;;;;;4.13;3.03;;;;;;;;;;5033391;28;20092;-77
2022/02/12 01:08:57;;;;;;;6.88;4.22;;;;;;;;;;5033168;28;20104;-76
2022/02/12 01:11:24;;;;;;;11.27;4.10;;;;;;;;;;5032658;28;20026;-77
2022/02/12 01:13:50;;;;;;;11.48;5.18;;;;;;;;;;5014720;28;20083;-77
2022/02/12 01:16:16;;;;;;;7.95;4.97;;;;;;;;;;5032761;28;20017;-77
2022/02/12 01:18:42;;;;;;;6.18;4.32;;;;;;;;;;5015227;28;20526;-76
2022/02/12 01:21:08;;;;;;;14.07;5.53;;;;;;;;;;5033024;28;20072;-76
2022/02/12 01:23:35;;;;;;;10.27;5.35;;;;;;;;;;5032953;28;20026;-76
2022/02/12 01:26:01;;;;;;;6.50;3.63;;;;;;;;;;5033266;28;20025;-76
2022/02/12 01:28:27;;;;;;;12.50;6.20;;;;;;;;;;5015032;28;20427;-77
2022/02/12 01:30:53;;;;;;;21.27;10.38;;;;;;;;;;5033247;28;20017;-76
2022/02/12 01:33:20;;;;;;;11.25;4.32;;;;;;;;;;5015119;28;20078;-76
2022/02/12 01:35:46;;;;;;;7.38;5.05;;;;;;;;;;5033096;28;20021;-77
2022/02/12 01:38:12;;;;;;;12.07;7.43;;;;;;;;;;5032464;28;20630;-77
2022/02/12 01:40:38;;;;;;;7.40;4.53;;;;;;;;;;5032717;28;20488;-77
2022/02/12 01:43:07;;;;;;;9.40;5.15;;;;;;;;;;5032780;28;20473;-77
2022/02/12 01:45:33;;;;;;;7.80;4.97;;;;;;;;;;5032775;28;20022;-76
2022/02/12 01:47:59;;;;;;;5.80;3.20;;;;;;;;;;5014978;28;20415;-76
2022/02/12 01:50:25;;;;;;;8.80;4.07;;;;;;;;;;5032616;28;20053;-78
2022/02/12 01:52:52;;;;;;;7.18;4.25;;;;;;;;;;5032534;28;20106;-77
2022/02/12 01:55:18;;;;;;;12.43;4.93;;;;;;;;;;5014840;28;20200;-76
2022/02/12 01:57:44;;;;;;;8.82;4.65;;;;;;;;;;5014523;28;20024;-77
2022/02/12 02:00:12;;;;;;;13.90;5.28;;;;;;;;;;5014616;28;20028;-76
2022/02/12 02:02:38;;;;;;;10.98;4.35;;;;;;;;;;5032832;28;20068;-77
2022/02/12 02:05:05;;;;;;;8.65;4.47;;;;;;;;;;5032372;28;20017;-77
2022/02/12 02:07:31;;;;;;;12.13;7.10;;;;;;;;;;5031667;28;20018;-77
2022/02/12 02:09:57;;;;;;;13.05;5.15;;;;;;;;;;5032451;28;20048;-77
2022/02/12 02:12:23;;;;;;;5.35;3.35;;;;;;;;;;5032270;28;20492;-77
2022/02/12 02:14:49;;;;;;;6.18;3.40;;;;;;;;;;5031939;28;20527;-76
2022/02/12 02:17:16;;;;;;;5.90;3.33;;;;;;;;;;5031992;28;20032;-76
2022/02/12 02:19:42;;;;;;;5.95;3.40;;;;;;;;;;5014386;28;20017;-76
2022/02/12 02:22:09;;;;;;;8.38;3.10;;;;;;;;;;5014366;28;20053;-76
2022/02/12 02:24:35;;;;;;;7.20;3.38;;;;;;;;;;5014252;28;20021;-77
2022/02/12 02:27:06;;;;;;;14.05;4.55;;;;;;;;;;5038290;28;20018;-77
2022/02/12 02:29:32;;;;;;;8.32;5.03;;;;;;;;;;5009139;28;20022;-77
2022/02/12 02:31:58;;;;;;;11.25;3.58;;;;;;;;;;5031982;28;20460;-77
2022/02/12 02:34:25;;;;;;;7.93;3.53;;;;;;;;;;5037547;28;20025;-76
2022/02/12 02:36:54;;;;;;;8.90;4.68;;;;;;;;;;5031535;28;20146;-77
2022/02/12 02:39:20;;;;;;;5.93;3.67;;;;;;;;;;5031541;28;20496;-77
2022/02/12 02:41:46;;;;;;;6.43;3.72;;;;;;;;;;5031773;28;20030;-77
2022/02/12 02:44:12;;;;;;;8.00;4.15;;;;;;;;;;5031870;28;20104;-77
2022/02/12 02:46:38;;;;;;;7.07;3.90;;;;;;;;;;5000123;28;20022;-77
2022/02/12 02:49:04;;;;;;;6.72;3.97;;;;;;;;;;5031717;28;20158;-77
2022/02/12 02:56:59;;;;;;;4.05;3.25;;;;;;;;;;5031492;28;20079;-78
2022/02/12 02:59:25;;;;;;;6.22;3.05;;;;;;;;;;5013967;28;20090;-77
2022/02/12 03:01:53;;;;;;;6.43;3.70;;;;;;;;;;5031233;28;20092;-77
2022/02/12 03:04:24;;;;;;;4.85;2.35;;;;;;;;;;5031785;28;20160;-77
2022/02/12 03:06:51;;;;;;;6.88;2.92;;;;;;;;;;5031461;28;20392;-76
2022/02/12 03:09:17;;;;;;;2.80;1.88;;;;;;;;;;5013736;28;20026;-76
2022/02/12 03:11:43;;;;;;;8.13;2.00;;;;;;;;;;5005762;28;20041;-77
2022/02/12 03:14:09;;;;;;;4.65;3.13;;;;;;;;;;5013476;28;20047;-78
2022/02/12 03:16:36;;;;;;;8.65;2.70;;;;;;;;;;5031349;28;20060;-79
2022/02/12 03:19:03;;;;;;;6.55;3.42;;;;;;;;;;5031357;28;20020;-76
2022/02/12 03:21:29;;;;;;;6.82;3.13;;;;;;;;;;4999852;28;20025;-77
2022/02/12 03:23:55;;;;;;;4.25;2.45;;;;;;;;;;5031796;28;20048;-77
2022/02/12 03:26:23;;;;;;;5.10;3.00;;;;;;;;;;5031525;28;20021;-77
2022/02/12 03:28:49;;;;;;;7.20;2.60;;;;;;;;;;5013660;28;20083;-77
2022/02/12 03:31:15;;;;;;;7.20;3.45;;;;;;;;;;5013636;28;20477;-77
2022/02/12 03:33:41;;;;;;;5.10;2.88;;;;;;;;;;5046636;28;20120;-77
2022/02/12 03:36:07;;;;;;;4.88;3.03;;;;;;;;;;5036367;28;20469;-76
2022/02/12 03:38:35;;;;;;;7.10;3.53;;;;;;;;;;5015945;28;20473;-77
2022/02/12 03:41:02;;;;;;;5.35;3.22;;;;;;;;;;5017651;28;20041;-76
2022/02/12 03:43:32;;;;;;;7.22;3.28;;;;;;;;;;5034910;28;20022;-77
2022/02/12 03:45:59;;;;;;;10.23;4.18;;;;;;;;;;5035325;28;21649;-76
2022/02/12 03:48:26;;;;;;;8.25;5.90;;;;;;;;;;5003259;28;20088;-79
2022/02/12 03:50:52;;;;;;;6.80;2.97;;;;;;;;;;5035192;28;20472;-77
2022/02/12 03:53:18;;;;;;;6.78;3.63;;;;;;;;;;5034974;28;20125;-77
2022/02/12 03:55:45;;;;;;;7.05;3.30;;;;;;;;;;5035293;28;20093;-76
2022/02/12 03:58:13;;;;;;;4.95;3.08;;;;;;;;;;5017554;28;20055;-76
2022/02/12 04:00:40;;;;;;;9.82;4.47;;;;;;;;;;5035063;28;20014;-78
2022/02/12 04:03:06;;;;;;;4.53;3.20;;;;;;;;;;5034828;28;20017;-77
2022/02/12 04:05:33;;;;;;;7.97;3.85;;;;;;;;;;5034865;28;20018;-78
2022/02/12 04:07:59;;;;;;;8.75;3.38;;;;;;;;;;5034563;28;20022;-77
2022/02/12 04:10:26;;;;;;;4.25;2.38;;;;;;;;;;5035035;28;20025;-77
2022/02/12 04:12:52;;;;;;;10.98;6.00;;;;;;;;;;5020469;28;20511;-77
2022/02/12 04:15:19;;;;;;;7.38;4.07;;;;;;;;;;5016486;28;20026;-77
2022/02/12 04:17:45;;;;;;;5.93;3.30;;;;;;;;;;5049702;28;20029;-77
2022/02/12 04:20:13;;;;;;;10.05;4.18;;;;;;;;;;5034220;28;20096;-76
2022/02/12 04:22:39;;;;;;;6.63;3.10;;;;;;;;;;5034052;28;20029;-77
2022/02/12 04:25:06;;;;;;;7.13;3.88;;;;;;;;;;5034471;28;20023;-76
2022/02/12 04:27:33;;;;;;;4.53;3.10;;;;;;;;;;5034298;28;20022;-76
2022/02/12 04:29:59;;;;;;;5.78;3.95;;;;;;;;;;5033875;28;20449;-77
2022/02/12 04:32:25;;;;;;;6.53;2.72;;;;;;;;;;5034163;28;20443;-77
2022/02/12 04:34:52;;;;;;;4.05;2.60;;;;;;;;;;5034052;28;20036;-76
2022/02/12 04:37:19;;;;;;;12.77;2.85;;;;;;;;;;5007383;28;20026;-77
2022/02/12 04:39:45;;;;;;;5.55;2.78;;;;;;;;;;5028713;28;20017;-76
2022/02/12 04:42:11;;;;;;;6.00;3.65;;;;;;;;;;5034105;28;20018;-76
2022/02/12 04:44:41;;;;;;;4.80;2.95;;;;;;;;;;5034004;28;20096;-76
2022/02/12 04:47:08;;;;;;;8.73;4.30;;;;;;;;;;5016046;28;20040;-76
2022/02/12 04:49:34;;;;;;;12.75;5.10;;;;;;;;;;5032993;28;20052;-77
2022/02/12 04:52:01;;;;;;;11.00;2.90;;;;;;;;;;5033476;28;20028;-78
2022/02/12 04:54:27;;;;;;;9.52;5.35;;;;;;;;;;5016097;28;20021;-77
2022/02/12 04:56:53;;;;;;;11.85;4.38;;;;;;;;;;5033612;28;20029;-76
2022/02/12 04:59:19;;;;;;;8.63;3.17;;;;;;;;;;5033829;28;20018;-77
2022/02/12 05:01:45;;;;;;;10.73;3.80;;;;;;;;;;5032115;28;20025;-76
2022/02/12 05:04:11;;;;;;;6.45;3.63;;;;;;;;;;5032847;28;20072;-76
2022/02/12 05:06:37;;;;;;;8.05;2.92;;;;;;;;;;5015681;28;20068;-77
2022/02/12 05:09:04;;;;;;;6.00;3.30;;;;;;;;;;5011890;28;20231;-77
2022/02/12 05:11:30;;;;;;;6.25;2.88;;;;;;;;;;5023704;28;20057;-76
2022/02/12 05:13:56;;;;;;;6.55;3.75;;;;;;;;;;5032813;28;20494;-77
2022/02/12 05:16:22;;;;;;;10.57;4.28;;;;;;;;;;5033210;28;20376;-76
2022/02/12 05:18:48;;;;;;;12.15;4.75;;;;;;;;;;5014722;28;20052;-76
2022/02/12 05:21:14;;;;;;;9.02;5.00;;;;;;;;;;5015051;28;20014;-76
2022/02/12 05:23:40;;;;;;;5.55;3.38;;;;;;;;;;5015061;28;20022;-77
2022/02/12 05:26:06;;;;;;;8.13;4.82;;;;;;;;;;5032726;28;20017;-76
2022/02/12 05:28:33;;;;;;;10.02;5.60;;;;;;;;;;5014742;28;21264;-77
2022/02/12 05:30:59;;;;;;;14.38;4.47;;;;;;;;;;5013224;28;20025;-77
2022/02/12 05:33:26;;;;;;;9.95;4.97;;;;;;;;;;5015183;28;20034;-77
2022/02/12 05:35:52;;;;;;;11.43;5.40;;;;;;;;;;5011907;28;21183;-77
2022/02/12 05:38:18;;;;;;;13.10;7.22;;;;;;;;;;5014611;28;20167;-76
2022/02/12 05:40:44;;;;;;;22.00;8.98;;;;;;;;;;5032350;28;20018;-77
2022/02/12 05:43:10;;;;;;;30.42;16.77;;;;;;;;;;5014834;28;20013;-77
2022/02/12 05:45:36;;;;;;;43.53;21.23;;;;;;;;;;5013607;28;20032;-78
2022/02/12 05:48:02;;;;;;;38.13;19.05;;;;;;;;;;5031236;28;20026;-77
2022/02/12 05:50:29;;;;;;;29.77;11.23;;;;;;;;;;5014177;28;20041;-77
2022/02/12 05:52:58;;;;;;;14.18;7.53;;;;;;;;;;5014270;28;20595;-77
2022/02/12 05:55:24;;;;;;;12.05;6.43;;;;;;;;;;5031990;28;20024;-77
2022/02/12 05:57:56;;;;;;;18.10;9.00;;;;;;;;;;5029242;28;20020;-77
2022/02/12 06:00:22;;;;;;;28.98;12.77;;;;;;;;;;5014289;28;20026;-77
2022/02/12 06:02:48;;;;;;;26.70;11.63;;;;;;;;;;5031651;28;20048;-76
2022/02/12 06:05:14;;;;;;;24.40;12.70;;;;;;;;;;5031780;28;20057;-77
2022/02/12 06:07:40;;;;;;;17.75;9.32;;;;;;;;;;5030620;28;20028;-76
2022/02/12 06:10:06;;;;;;;15.75;8.93;;;;;;;;;;5031976;28;20021;-78
2022/02/12 06:12:32;;;;;;;24.85;12.98;;;;;;;;;;5013835;28;20029;-76
2022/02/12 06:14:59;;;;;;;12.93;8.10;;;;;;;;;;5031834;28;20021;-76
2022/02/12 06:17:25;;;;;;;21.77;11.32;;;;;;;;;;5013983;28;20417;-76
2022/02/12 06:19:51;;;;;;;14.52;8.45;;;;;;;;;;5008077;28;20068;-76
2022/02/12 06:22:17;;;;;;;9.35;4.82;;;;;;;;;;5027896;28;20021;-76
2022/02/12 06:24:43;;;;;;;13.63;7.25;;;;;;;;;;5010206;28;20026;-76
2022/02/12 06:27:09;;;;;;;13.38;7.90;;;;;;;;;;5013343;28;20021;-77
2022/02/12 06:29:35;;;;;;;18.42;8.32;;;;;;;;;;5013725;28;20045;-76
2022/02/12 06:32:01;;;;;;;16.63;10.45;;;;;;;;;;5031847;28;20025;-77
2022/02/12 06:34:27;;;;;;;41.33;21.58;;;;;;;;;;5032194;28;20036;-78
2022/02/12 06:36:53;;;;;;;47.08;22.98;;;;;;;;;;5013883;28;20148;-76
2022/02/12 06:39:19;;;;;;;29.00;17.02;;;;;;;;;;5031622;28;20396;-76
2022/02/12 06:41:45;;;;;;;44.88;25.58;;;;;;;;;;5012930;28;20154;-76
2022/02/12 06:44:11;;;;;;;58.28;37.50;;;;;;;;;;5031054;28;20025;-77
2022/02/12 06:46:37;;;;;;;16.30;10.93;;;;;;;;;;5030084;28;20561;-77
2022/02/12 06:49:03;;;;;;;49.40;27.27;;;;;;;;;;5030896;28;20484;-77
2022/02/12 06:51:30;;;;;;;21.58;11.30;;;;;;;;;;5031545;28;20040;-77
2022/02/12 06:53:56;;;;;;;23.02;11.95;;;;;;;;;;5013762;28;20041;-77
2022/02/12 06:56:22;;;;;;;23.50;9.10;;;;;;;;;;5001932;28;20033;-77
2022/02/12 06:58:48;;;;;;;17.38;9.38;;;;;;;;;;5013515;28;20025;-77
2022/02/12 07:01:14;;;;;;;14.38;5.60;;;;;;;;;;5031398;28;20017;-76
2022/02/12 07:03:40;;;;;;;13.50;6.63;;;;;;;;;;5030417;28;20075;-77
2022/02/12 07:06:06;;;;;;;12.82;7.03;;;;;;;;;;5029657;28;20028;-77
2022/02/12 07:08:32;;;;;;;21.35;11.00;;;;;;;;;;5029496;28;20053;-77
2022/02/12 07:10:58;;;;;;;16.27;7.95;;;;;;;;;;5029344;28;20022;-77
2022/02/12 07:13:24;;;;;;;16.40;8.25;;;;;;;;;;5014303;28;20041;-77
2022/02/12 07:15:50;;;;;;;15.27;9.13;;;;;;;;;;5033659;28;20045;-77
2022/02/12 07:18:16;;;;;;;15.43;9.18;;;;;;;;;;5033868;28;20017;-77
2022/02/12 07:20:42;;;;;;;13.13;7.63;;;;;;;;;;5035488;28;20022;-77
2022/02/12 07:23:08;;;;;;;16.27;7.22;;;;;;;;;;5017543;28;20407;-77
2022/02/12 07:25:34;;;;;;;23.40;13.15;;;;;;;;;;5035053;28;20704;-77
2022/02/12 07:28:00;;;;;;;17.58;9.23;;;;;;;;;;5017366;28;20048;-77
2022/02/12 07:30:27;;;;;;;26.10;14.50;;;;;;;;;;5035048;28;20392;-76
2022/02/12 07:32:53;;;;;;;29.17;14.18;;;;;;;;;;5017191;28;20392;-77
2022/02/12 07:35:19;;;;;;;23.92;11.40;;;;;;;;;;5035015;28;20045;-77
2022/02/12 07:37:46;;;;;;;28.08;13.45;;;;;;;;;;5017469;28;20045;-77
2022/02/12 07:40:18;;;;;;;28.27;11.98;;;;;;;;;;5017011;28;20494;-78
2022/02/12 07:42:44;;;;;;;14.82;7.82;;;;;;;;;;5035205;28;20388;-77
2022/02/12 07:45:10;;;;;;;6.57;3.80;;;;;;;;;;5050287;28;20020;-77
2022/02/12 07:47:37;;;;;;;8.07;4.22;;;;;;;;;;5034751;28;20021;-78
2022/02/12 07:50:05;;;;;;;11.27;5.00;;;;;;;;;;5034973;28;20077;-78
2022/02/12 07:52:31;;;;;;;13.45;4.82;;;;;;;;;;5034689;28;20052;-78
2022/02/12 07:54:57;;;;;;;8.85;3.58;;;;;;;;;;5003069;28;20424;-77
2022/02/12 07:57:23;;;;;;;8.55;5.57;;;;;;;;;;5047085;28;20018;-77
2022/02/12 07:59:49;;;;;;;11.55;5.90;;;;;;;;;;5017004;28;20049;-77
2022/02/12 08:02:15;;;;;;;7.60;2.80;;;;;;;;;;5033849;28;20017;-77
2022/02/12 08:04:41;;;;;;;6.00;3.17;;;;;;;;;;5034009;28;20089;-77
2022/02/12 08:09:52;;;;;;;14.52;5.13;;;;;;;;;;5034700;28;20468;-77
2022/02/12 08:12:22;;;;;;;8.95;4.53;;;;;;;;;;5016433;28;20022;-77
2022/02/12 08:14:49;;;;;;;6.72;3.08;;;;;;;;;;5034447;28;20977;-77
2022/02/12 08:17:16;;;;;;;6.55;3.55;;;;;;;;;;5016142;28;20048;-76
2022/02/12 08:19:43;;;;;;;8.90;3.95;;;;;;;;;;5034317;28;20064;-76
2022/02/12 08:22:10;;;;;;;9.00;4.35;;;;;;;;;;5016396;28;20383;-76
2022/02/12 08:24:37;;;;;;;8.23;4.50;;;;;;;;;;5033069;28;20021;-77
2022/02/12 08:27:03;;;;;;;8.77;4.28;;;;;;;;;;5015968;28;20021;-77
2022/02/12 08:29:30;;;;;;;7.88;3.53;;;;;;;;;;5016523;28;20026;-77
2022/02/12 08:31:56;;;;;;;3.80;2.35;;;;;;;;;;5040415;28;20030;-77
2022/02/12 08:34:23;;;;;;;12.48;4.88;;;;;;;;;;5033577;28;20121;-76
2022/02/12 08:36:50;;;;;;;11.63;4.97;;;;;;;;;;5033689;28;20071;-77
2022/02/12 08:39:16;;;;;;;10.98;3.95;;;;;;;;;;5033665;28;20041;-77
2022/02/12 08:41:42;;;;;;;7.88;3.92;;;;;;;;;;5016075;28;20452;-77
2022/02/12 08:44:08;;;;;;;9.60;5.70;;;;;;;;;;5033929;28;20017;-77
2022/02/12 08:46:34;;;;;;;7.32;4.15;;;;;;;;;;5048734;28;20464;-77
2022/02/12 08:49:01;;;;;;;10.23;4.88;;;;;;;;;;5033208;28;20520;-77
2022/02/12 08:51:27;;;;;;;8.15;5.00;;;;;;;;;;5033479;28;20025;-78
2022/02/12 08:53:53;;;;;;;9.63;3.22;;;;;;;;;;5033433;28;20065;-77
2022/02/12 08:56:21;;;;;;;6.60;4.03;;;;;;;;;;5033563;28;20053;-76
2022/02/12 08:58:48;;;;;;;11.55;5.40;;;;;;;;;;5001835;28;20053;-77
2022/02/12 09:01:14;;;;;;;13.02;5.32;;;;;;;;;;5033331;28;20021;-77
2022/02/12 09:03:40;;;;;;;6.13;3.63;;;;;;;;;;5015216;28;20017;-77
2022/02/12 09:06:07;;;;;;;6.22;4.00;;;;;;;;;;5033076;28;20024;-77
2022/02/12 09:08:33;;;;;;;13.68;5.20;;;;;;;;;;5015734;28;20044;-77
2022/02/12 09:10:59;;;;;;;5.93;3.78;;;;;;;;;;5033214;28;20128;-78
2022/02/12 09:13:25;;;;;;;10.07;4.63;;;;;;;;;;5032727;28;20057;-76
2022/02/12 09:15:51;;;;;;;11.13;4.50;;;;;;;;;;5033024;28;20087;-76
2022/02/12 09:18:17;;;;;;;6.57;2.38;;;;;;;;;;5033346;28;20024;-76
2022/02/12 09:20:43;;;;;;;6.05;3.17;;;;;;;;;;5015578;28;20109;-77
2022/02/12 09:23:09;;;;;;;5.00;3.33;;;;;;;;;;5015189;28;20022;-77
2022/02/12 09:25:35;;;;;;;6.32;3.13;;;;;;;;;;5015165;28;20373;-77
2022/02/12 09:28:01;;;;;;;7.63;5.22;;;;;;;;;;5032959;28;20095;-77
2022/02/12 09:30:27;;;;;;;13.13;6.78;;;;;;;;;;5033119;28;20018;-77
2022/02/12 09:32:53;;;;;;;12.50;8.10;;;;;;;;;;5001016;28;20555;-77
2022/02/12 09:35:20;;;;;;;26.25;5.72;;;;;;;;;;5032903;28;20503;-77
2022/02/12 09:37:47;;;;;;;10.98;5.63;;;;;;;;;;5015163;28;20056;-76
2022/02/12 09:40:14;;;;;;;6.57;4.03;;;;;;;;;;5032594;28;20116;-77
2022/02/12 09:42:40;;;;;;;14.00;5.03;;;;;;;;;;5035173;28;20107;-76
2022/02/12 09:45:07;;;;;;;11.63;4.45;;;;;;;;;;5032886;28;20044;-76
2022/02/12 09:47:47;;;;;;;15.35;4.53;;;;;;;;;;5030440;28;20024;-76
2022/02/12 09:50:14;;;;;;;8.30;6.40;;;;;;;;;;5022594;28;20050;-79
2022/02/12 09:52:45;;;;;;;10.65;4.70;;;;;;;;;;5032379;28;20042;-77
2022/02/12 09:55:12;;;;;;;8.30;3.88;;;;;;;;;;5032510;28;20044;-77
2022/02/12 09:57:38;;;;;;;6.20;3.70;;;;;;;;;;5032382;28;20026;-76
2022/02/12 10:00:06;;;;;;;9.27;6.32;;;;;;;;;;5032600;28;20096;-76
2022/02/12 10:02:32;;;;;;;14.48;7.45;;;;;;;;;;5031777;28;20029;-77
2022/02/12 10:05:17;;;;;;;12.43;6.05;;;;;;;;;;5014411;28;20026;-77
2022/02/12 10:07:43;;;;;;;6.22;3.42;;;;;;;;;;4997087;28;20356;-77
2022/02/12 10:10:17;;;;;;;8.63;4.70;;;;;;;;;;5014673;28;20087;-77
2022/02/12 10:12:43;;;;;;;5.00;3.75;;;;;;;;;;5014071;28;20033;-76
2022/02/12 10:15:29;;;;;;;7.60;4.50;;;;;;;;;;5032378;28;20021;-77
2022/02/12 10:17:59;;;;;;;5.50;3.38;;;;;;;;;;5031882;28;20024;-77
2022/02/12 10:20:29;;;;;;;7.32;3.60;;;;;;;;;;5032477;28;20037;-77
2022/02/12 10:23:02;;;;;;;11.55;4.95;;;;;;;;;;5014028;28;20028;-76
2022/02/12 10:25:28;;;;;;;7.70;4.10;;;;;;;;;;5014281;28;20421;-77
2022/02/12 10:27:54;;;;;;;9.63;6.47;;;;;;;;;;5032154;28;20423;-77
2022/02/12 10:30:24;;;;;;;9.15;3.65;;;;;;;;;;5031772;28;20017;-77
2022/02/12 10:32:52;;;;;;;10.02;4.30;;;;;;;;;;5031964;28;20516;-75
2022/02/12 10:35:18;;;;;;;8.23;4.05;;;;;;;;;;5032220;28;20018;-76
2022/02/12 10:37:46;;;;;;;8.27;5.25;;;;;;;;;;5001675;28;20022;-76
2022/02/12 10:40:12;;;;;;;10.45;5.50;;;;;;;;;;5030469;28;20010;-77
2022/02/12 10:42:44;;;;;;;13.23;5.00;;;;;;;;;;5031721;28;20021;-77
2022/02/12 10:45:16;;;;;;;10.15;6.10;;;;;;;;;;5032037;28;20014;-77
2022/02/12 10:47:42;;;;;;;7.82;5.40;;;;;;;;;;5013372;28;20128;-77
2022/02/12 10:50:10;;;;;;;11.52;6.88;;;;;;;;;;5031529;28;20125;-77
2022/02/12 10:52:42;;;;;;;15.50;5.13;;;;;;;;;;5046676;28;20034;-76
2022/02/12 10:55:09;;;;;;;12.38;4.82;;;;;;;;;;5031598;28;20108;-78
2022/02/12 10:57:38;;;;;;;7.65;4.03;;;;;;;;;;5013776;28;20023;-78
2022/02/12 11:00:08;;;;;;;4.75;1.90;;;;;;;;;;4999680;28;20037;-78
2022/02/12 11:02:36;;;;;;;6.95;2.47;;;;;;;;;;5043011;28;20048;-77
2022/02/12 11:05:02;;;;;;;6.07;3.90;;;;;;;;;;5031418;28;20025;-77
2022/02/12 11:07:29;;;;;;;21.42;4.63;;;;;;;;;;5031347;28;20933;-78
2022/02/12 11:09:56;;;;;;;5.50;4.15;;;;;;;;;;4999337;28;20381;-78
2022/02/12 11:12:25;;;;;;;8.88;6.03;;;;;;;;;;5031380;28;20756;-77
2022/02/12 11:14:53;;;;;;;6.28;3.67;;;;;;;;;;5018431;28;20022;-77
2022/02/12 11:17:30;;;;;;;10.75;4.80;;;;;;;;;;5030967;28;20155;-77
2022/02/12 11:19:57;;;;;;;5.63;2.95;;;;;;;;;;5013741;28;20032;-77
2022/02/12 11:22:23;;;;;;;11.00;4.90;;;;;;;;;;5013763;28;20052;-78
2022/02/12 11:24:49;;;;;;;6.28;3.40;;;;;;;;;;5013695;28;20595;-77
2022/02/12 11:27:15;;;;;;;8.30;4.38;;;;;;;;;;5046082;28;20053;-77
2022/02/12 11:29:42;;;;;;;14.07;5.72;;;;;;;;;;5013447;28;20021;-77
2022/02/12 11:32:10;;;;;;;9.88;7.05;;;;;;;;;;4999594;28;20022;-77
2022/02/12 11:34:36;;;;;;;8.00;3.95;;;;;;;;;;5031115;28;20030;-77
2022/02/12 11:37:12;;;;;;;8.35;4.45;;;;;;;;;;4999716;28;20022;-77
2022/02/12 11:39:39;;;;;;;6.78;3.80;;;;;;;;;;5018792;28;20388;-77
2022/02/12 11:42:05;;;;;;;10.80;4.43;;;;;;;;;;5031191;28;20022;-78
2022/02/12 11:44:44;;;;;;;7.57;3.97;;;;;;;;;;5013010;28;20040;-77
2022/02/12 11:47:11;;;;;;;5.43;3.05;;;;;;;;;;5013017;28;20032;-78
2022/02/12 11:49:44;;;;;;;6.00;3.60;;;;;;;;;;5007870;28;20041;-78
2022/02/12 11:52:11;;;;;;;4.80;3.30;;;;;;;;;;5012931;28;20014;-77
2022/02/12 11:54:59;;;;;;;10.63;6.47;;;;;;;;;;5007771;28;20061;-77
2022/02/12 11:57:28;;;;;;;6.32;4.72;;;;;;;;;;5011187;28;20045;-78
2022/02/12 12:00:06;;;;;;;5.57;3.85;;;;;;;;;;5033198;28;20099;-78
2022/02/12 12:02:38;;;;;;;6.18;3.30;;;;;;;;;;5034064;28;20029;-78
2022/02/12 12:05:16;;;;;;;17.80;6.40;;;;;;;;;;5016193;28;20091;-77
2022/02/12 12:10:28;;;;;;;5.18;3.10;;;;;;;;;;5032700;28;20389;-77
2022/02/12 12:13:25;;;;;;;7.38;3.42;;;;;;;;;;5033423;28;20026;-76
2022/02/12 12:15:55;;;;;;;18.13;3.60;;;;;;;;;;5008728;28;20061;-77
2022/02/12 12:18:23;;;;;;;8.32;4.63;;;;;;;;;;5016414;28;20448;-77
2022/02/12 12:20:49;;;;;;;12.18;5.78;;;;;;;;;;5016557;28;20021;-77
2022/02/12 12:23:16;;;;;;;5.95;3.28;;;;;;;;;;5033952;28;20032;-77
2022/02/12 12:25:53;;;;;;;7.00;4.18;;;;;;;;;;5038801;28;20029;-78
2022/02/12 12:28:27;;;;;;;8.48;3.92;;;;;;;;;;5034135;28;20033;-77
2022/02/12 12:30:54;;;;;;;13.82;5.93;;;;;;;;;;5033974;28;20032;-77
2022/02/12 12:33:21;;;;;;;11.32;6.47;;;;;;;;;;5033604;28;20527;-76
2022/02/12 12:35:54;;;;;;;7.82;4.18;;;;;;;;;;5033272;28;20447;-77
2022/02/12 12:38:20;;;;;;;9.55;4.63;;;;;;;;;;5015374;28;20021;-76
2022/02/12 12:40:46;;;;;;;6.15;3.45;;;;;;;;;;5015538;28;20128;-76
2022/02/12 12:43:14;;;;;;;8.35;4.45;;;;;;;;;;5015440;28;20021;-76
2022/02/12 12:45:44;;;;;;;27.75;11.50;;;;;;;;;;5015767;28;20013;-77
2022/02/12 12:48:11;;;;;;;9.82;3.33;;;;;;;;;;5013446;28;20018;-76
2022/02/12 12:50:38;;;;;;;25.65;15.60;;;;;;;;;;5048978;28;20092;-77
2022/02/12 12:53:08;;;;;;;10.48;6.63;;;;;;;;;;5033593;28;20045;-76
2022/02/12 12:55:35;;;;;;;9.57;5.45;;;;;;;;;;5033758;28;20068;-76
2022/02/12 12:58:14;;;;;;;7.32;4.70;;;;;;;;;;5033128;28;20037;-76
2022/02/12 13:00:40;;;;;;;19.48;9.52;;;;;;;;;;5033569;28;20044;-75
2022/02/12 13:03:06;;;;;;;15.88;7.85;;;;;;;;;;5033195;28;20043;-77
2022/02/12 13:05:33;;;;;;;12.13;6.85;;;;;;;;;;5002430;28;20056;-75
2022/02/12 13:08:00;;;;;;;8.25;4.25;;;;;;;;;;5033227;28;20013;-76
2022/02/12 13:10:27;;;;;;;5.00;3.60;;;;;;;;;;5033013;28;20022;-76
2022/02/12 13:12:54;;;;;;;5.85;3.95;;;;;;;;;;5032415;28;20033;-76
2022/02/12 13:15:28;;;;;;;12.15;4.80;;;;;;;;;;5019366;28;20025;-76
2022/02/12 13:17:57;;;;;;;7.70;3.72;;;;;;;;;;5014715;28;20031;-77
2022/02/12 13:20:24;;;;;;;8.30;4.38;;;;;;;;;;5014984;28;20025;-76
2022/02/12 13:22:54;;;;;;;5.78;4.20;;;;;;;;;;5032206;28;20026;-76
2022/02/12 13:25:20;;;;;;;18.05;8.18;;;;;;;;;;5032387;28;20052;-77
2022/02/12 13:27:48;;;;;;;13.80;7.60;;;;;;;;;;5033468;28;20018;-76
2022/02/12 13:30:15;;;;;;;6.78;4.22;;;;;;;;;;5030781;28;20472;-77
2022/02/12 13:32:43;;;;;;;15.95;6.28;;;;;;;;;;5029714;28;20038;-77
2022/02/12 13:35:13;;;;;;;3.45;2.42;;;;;;;;;;5031555;28;20029;-78
2022/02/12 13:37:41;;;;;;;13.98;3.50;;;;;;;;;;5010593;28;20021;-77
2022/02/12 13:40:14;;;;;;;15.30;3.60;;;;;;;;;;5014892;28;20423;-78
2022/02/12 13:42:40;;;;;;;6.95;2.42;;;;;;;;;;5026619;28;20017;-76
2022/02/12 13:45:06;;;;;;;28.17;14.98;;;;;;;;;;5031277;28;20010;-76
2022/02/12 13:47:33;;;;;;;12.20;5.35;;;;;;;;;;5013042;28;20120;-75
2022/02/12 13:49:59;;;;;;;14.80;5.43;;;;;;;;;;5028438;28;20103;-76
2022/02/12 13:52:26;;;;;;;4.70;2.22;;;;;;;;;;5030949;28;20021;-76
2022/02/12 13:55:03;;;;;;;10.55;2.50;;;;;;;;;;5031275;28;20018;-76
2022/02/12 13:57:29;;;;;;;14.75;7.82;;;;;;;;;;5029584;28;20025;-77
2022/02/12 13:59:55;;;;;;;6.00;3.20;;;;;;;;;;5031751;28;20120;-75
2022/02/12 14:02:21;;;;;;;9.73;4.65;;;;;;;;;;5031259;28;20018;-76
2022/02/12 14:04:47;;;;;;;8.85;4.70;;;;;;;;;;5030996;28;20025;-77
2022/02/12 14:07:13;;;;;;;12.80;5.70;;;;;;;;;;5032367;28;20026;-77
2022/02/12 14:09:39;;;;;;;11.63;6.80;;;;;;;;;;5025729;28;20420;-76
2022/02/12 14:12:06;;;;;;;7.13;3.53;;;;;;;;;;5024470;28;20495;-77
2022/02/12 14:14:32;;;;;;;11.50;5.07;;;;;;;;;;5032213;28;20152;-76
2022/02/12 14:16:59;;;;;;;15.07;6.95;;;;;;;;;;5014460;28;20053;-76
2022/02/12 14:19:26;;;;;;;10.10;5.43;;;;;;;;;;5031963;28;20025;-76
2022/02/12 14:21:52;;;;;;;16.63;7.07;;;;;;;;;;5031772;28;20144;-76
2022/02/12 14:24:19;;;;;;;9.00;4.35;;;;;;;;;;5014255;28;20021;-76
2022/02/12 14:26:45;;;;;;;6.60;4.13;;;;;;;;;;5032099;28;20495;-77
2022/02/12 14:29:11;;;;;;;10.23;6.10;;;;;;;;;;5019666;28;20389;-77
2022/02/12 14:31:37;;;;;;;6.53;3.22;;;;;;;;;;5012611;28;20104;-76
2022/02/12 14:34:04;;;;;;;26.10;7.43;;;;;;;;;;5032074;28;20107;-76
2022/02/12 14:36:30;;;;;;;16.85;5.88;;;;;;;;;;5031753;28;20049;-77
2022/02/12 14:38:56;;;;;;;12.82;5.93;;;;;;;;;;5032179;28;20017;-77
2022/02/12 14:41:22;;;;;;;11.30;7.38;;;;;;;;;;5027130;28;20033;-76
2022/02/12 14:43:48;;;;;;;17.45;7.10;;;;;;;;;;5031779;28;20400;-77
2022/02/12 14:46:14;;;;;;;10.02;5.68;;;;;;;;;;5031640;28;20390;-76